Time;durP1;ratioP1;P1;durP2;ratioP2;P2;SDS_P1;SDS_P2;PMS_P1;PMS_P2;Temp;Humidity;BMP_temperature;BMP_pressure;BME280_temperature;BME280_humidity;BME280_pressure;Samples;Min_cycle;Max_cycle;Signal;HPM_P1;HPM_P2
2022/04/11 00:02:17;;;;;;;10.63;4.43;;;2.80;99.90;;;;;;4847431;29;20243;-70
2022/04/11 00:04:43;;;;;;;8.37;4.33;;;2.80;99.90;;;;;;4879657;29;20701;-70
2022/04/11 00:07:09;;;;;;;8.13;3.97;;;2.80;99.90;;;;;;4879399;29;20645;-71
2022/04/11 00:09:35;;;;;;;8.07;4.23;;;2.80;99.90;;;;;;4879477;29;20190;-71
2022/04/11 00:12:01;;;;;;;10.67;5.30;;;2.80;99.90;;;;;;4878135;29;20614;-71
2022/04/11 00:14:27;;;;;;;11.43;4.57;;;2.70;99.90;;;;;;4879334;29;20184;-71
2022/04/11 00:16:53;;;;;;;5.67;3.10;;;2.70;99.90;;;;;;4879583;29;20540;-71
2022/04/11 00:19:19;;;;;;;14.77;4.00;;;2.70;99.90;;;;;;4879121;29;20199;-71
2022/04/11 00:21:44;;;;;;;11.77;4.27;;;2.70;99.90;;;;;;4862803;29;20218;-72
2022/04/11 00:24:10;;;;;;;8.87;4.27;;;2.70;99.90;;;;;;4879069;29;20220;-71
2022/04/11 00:26:36;;;;;;;7.67;3.27;;;2.70;99.90;;;;;;4879378;29;20257;-71
2022/04/11 00:29:02;;;;;;;14.87;4.43;;;2.60;99.90;;;;;;4879389;29;20188;-70
2022/04/11 00:31:29;;;;;;;9.00;4.10;;;2.60;99.90;;;;;;4877922;29;20560;-71
2022/04/11 00:33:55;;;;;;;10.77;3.43;;;2.60;99.90;;;;;;4879253;29;20195;-72
2022/04/11 00:36:21;;;;;;;10.10;4.23;;;2.60;99.90;;;;;;4878914;29;20266;-72
2022/04/11 00:38:47;;;;;;;8.33;3.90;;;2.60;99.90;;;;;;4878917;29;20652;-70
2022/04/11 00:41:13;;;;;;;7.93;3.40;;;2.60;99.90;;;;;;4861977;29;20213;-71
2022/04/11 00:43:40;;;;;;;11.67;3.80;;;2.60;99.90;;;;;;4879139;29;20187;-72
2022/04/11 00:46:08;;;;;;;7.90;3.37;;;2.70;99.90;;;;;;4879179;29;20218;-71
2022/04/11 00:48:35;;;;;;;5.03;3.10;;;2.60;99.90;;;;;;4878931;29;20652;-71
2022/04/11 00:51:10;;;;;;;11.70;3.80;;;2.60;99.90;;;;;;4878817;29;20533;-72
2022/04/11 00:53:40;;;;;;;7.20;3.33;;;2.60;99.90;;;;;;4878962;29;20240;-71
2022/04/11 00:56:09;;;;;;;8.23;4.23;;;2.70;99.90;;;;;;4878802;29;20245;-71
2022/04/11 00:58:36;;;;;;;7.60;3.70;;;2.70;99.90;;;;;;4878886;29;20535;-71
2022/04/11 01:01:02;;;;;;;7.67;2.93;;;2.60;99.90;;;;;;4878704;29;20223;-72
2022/04/11 01:03:28;;;;;;;6.67;3.57;;;2.60;99.90;;;;;;4878606;29;20194;-72
2022/04/11 01:05:54;;;;;;;11.63;4.23;;;2.60;99.90;;;;;;4878708;29;20214;-71
2022/04/11 01:08:19;;;;;;;8.20;3.47;;;2.60;99.90;;;;;;4878229;29;20215;-71
2022/04/11 01:10:46;;;;;;;9.13;3.50;;;2.60;99.90;;;;;;4878421;29;20225;-72
2022/04/11 01:13:11;;;;;;;10.67;3.67;;;2.60;99.90;;;;;;4878445;29;20539;-72
2022/04/11 01:15:37;;;;;;;10.93;3.70;;;2.60;99.90;;;;;;4878482;29;20269;-72
2022/04/11 01:18:04;;;;;;;7.30;3.67;;;2.60;99.90;;;;;;4878297;29;20192;-73
2022/04/11 01:20:30;;;;;;;9.27;3.00;;;2.60;99.90;;;;;;4878018;29;20676;-73
2022/04/11 01:22:56;;;;;;;8.07;3.50;;;2.60;99.90;;;;;;4878215;29;20650;-71
2022/04/11 01:25:21;;;;;;;12.60;2.80;;;2.60;99.90;;;;;;4878179;29;20193;-72
2022/04/11 01:27:47;;;;;;;5.57;3.33;;;2.60;99.90;;;;;;4877109;29;20220;-72
2022/04/11 01:30:15;;;;;;;9.30;3.13;;;2.60;99.90;;;;;;4878226;29;20214;-72
2022/04/11 01:32:41;;;;;;;8.47;3.70;;;2.60;99.90;;;;;;4876938;29;20232;-71
2022/04/11 01:35:25;;;;;;;8.30;3.50;;;2.60;99.90;;;;;;4878277;29;20184;-71
2022/04/11 01:37:51;;;;;;;8.20;3.53;;;2.60;99.90;;;;;;4877109;29;20281;-71
2022/04/11 01:40:17;;;;;;;9.60;3.30;;;2.60;99.90;;;;;;4877798;29;20187;-72
2022/04/11 01:42:43;;;;;;;8.97;3.67;;;2.60;99.90;;;;;;4878278;29;20204;-72
2022/04/11 01:45:11;;;;;;;8.80;3.67;;;2.60;99.90;;;;;;4878040;29;20186;-72
2022/04/11 01:47:40;;;;;;;7.47;3.77;;;2.60;99.90;;;;;;4878190;29;20182;-72
2022/04/11 01:50:09;;;;;;;12.10;3.87;;;2.60;99.90;;;;;;4877808;29;20182;-72
2022/04/11 01:52:35;;;;;;;11.93;3.80;;;2.60;99.90;;;;;;4877689;29;20604;-72
2022/04/11 01:55:03;;;;;;;9.57;3.17;;;2.60;99.90;;;;;;4878054;29;20235;-72
2022/04/11 01:57:30;;;;;;;11.43;3.90;;;2.60;99.90;;;;;;4877629;29;20187;-72
2022/04/11 01:59:55;;;;;;;13.70;3.87;;;2.60;99.90;;;;;;4877874;29;20282;-72
2022/04/11 02:02:21;;;;;;;8.87;3.63;;;2.60;99.90;;;;;;4877582;29;20314;-71
2022/04/11 02:04:47;;;;;;;12.17;4.33;;;2.60;99.90;;;;;;4878199;29;20199;-71
2022/04/11 02:07:13;;;;;;;11.20;3.40;;;2.60;99.90;;;;;;4877621;29;20195;-65
2022/04/11 02:09:38;;;;;;;10.47;3.93;;;2.60;99.90;;;;;;4878157;29;20298;-72
2022/04/11 02:12:04;;;;;;;8.37;4.23;;;2.60;99.90;;;;;;4877615;29;20323;-72
2022/04/11 02:14:30;;;;;;;15.13;5.90;;;2.60;99.90;;;;;;4877525;29;20195;-72
2022/04/11 02:16:56;;;;;;;14.47;4.70;;;2.60;99.90;;;;;;4877741;29;20196;-71
2022/04/11 02:19:22;;;;;;;13.50;5.03;;;2.60;99.90;;;;;;4877275;29;20206;-72
2022/04/11 02:21:48;;;;;;;9.30;4.33;;;2.60;99.90;;;;;;4877983;29;20281;-72
2022/04/11 02:24:14;;;;;;;13.20;4.53;;;2.60;99.90;;;;;;4877309;29;20259;-68
2022/04/11 02:26:39;;;;;;;6.70;4.40;;;2.70;99.90;;;;;;4877693;29;20199;-72
2022/04/11 02:29:05;;;;;;;10.30;4.03;;;2.70;99.90;;;;;;4877599;29;20193;-73
2022/04/11 02:31:31;;;;;;;9.53;3.53;;;2.70;99.90;;;;;;4877318;29;20276;-72
2022/04/11 02:33:57;;;;;;;9.60;4.23;;;2.70;99.90;;;;;;4877503;29;20184;-72
2022/04/11 02:36:22;;;;;;;16.20;4.97;;;2.70;99.90;;;;;;4876250;29;20549;-73
2022/04/11 02:38:48;;;;;;;11.10;4.93;;;2.70;99.90;;;;;;4877479;29;20192;-72
2022/04/11 02:41:14;;;;;;;13.17;4.37;;;2.80;99.90;;;;;;4877340;29;20217;-73
2022/04/11 02:43:39;;;;;;;11.97;4.97;;;2.80;99.90;;;;;;4877531;29;20728;-72
2022/04/11 02:46:05;;;;;;;10.53;4.37;;;2.80;99.90;;;;;;4878440;29;20203;-72
2022/04/11 02:48:31;;;;;;;5.73;3.13;;;2.80;99.90;;;;;;4880768;29;20270;-72
2022/04/11 02:50:57;;;;;;;11.67;3.57;;;2.80;99.90;;;;;;4880702;29;20297;-72
2022/04/11 02:53:22;;;;;;;8.90;4.33;;;2.90;99.90;;;;;;4880589;29;20195;-71
2022/04/11 02:55:48;;;;;;;11.13;4.00;;;2.80;99.90;;;;;;4880616;29;20238;-72
2022/04/11 02:58:15;;;;;;;12.10;4.50;;;2.90;99.90;;;;;;4880700;29;20190;-71
2022/04/11 03:00:41;;;;;;;9.60;4.40;;;2.90;99.90;;;;;;4880568;29;20543;-71
2022/04/11 03:03:07;;;;;;;11.93;4.57;;;2.90;99.90;;;;;;4880583;29;20323;-72
2022/04/11 03:05:35;;;;;;;12.57;4.90;;;2.90;99.90;;;;;;4880511;29;20561;-70
2022/04/11 03:08:01;;;;;;;10.10;4.70;;;2.90;99.90;;;;;;4880807;29;20187;-72
2022/04/11 03:10:26;;;;;;;9.03;3.97;;;2.90;99.90;;;;;;4880403;29;20191;-71
2022/04/11 03:12:52;;;;;;;12.30;4.43;;;2.90;99.90;;;;;;4863639;29;20203;-70
2022/04/11 03:15:18;;;;;;;12.70;5.30;;;3.00;99.90;;;;;;4880209;29;20339;-69
2022/04/11 03:17:44;;;;;;;10.10;5.00;;;3.00;99.90;;;;;;4863868;29;20188;-71
2022/04/11 03:20:10;;;;;;;16.47;5.20;;;2.90;99.90;;;;;;4880185;29;20782;-71
2022/04/11 03:22:36;;;;;;;9.43;3.70;;;3.00;99.90;;;;;;4880183;29;20228;-71
2022/04/11 03:25:02;;;;;;;12.37;5.03;;;3.00;99.90;;;;;;4880208;29;20187;-72
2022/04/11 03:27:27;;;;;;;14.23;4.63;;;3.00;99.90;;;;;;4879828;29;20188;-72
2022/04/11 03:29:53;;;;;;;12.33;5.07;;;3.00;99.90;;;;;;4880044;29;20188;-71
2022/04/11 03:32:19;;;;;;;9.97;4.03;;;3.00;99.90;;;;;;4879854;29;20210;-69
2022/04/11 03:34:45;;;;;;;11.53;5.53;;;2.90;99.90;;;;;;4880007;29;20280;-70
2022/04/11 03:37:12;;;;;;;10.70;4.53;;;2.90;99.90;;;;;;4879905;29;20199;-70
2022/04/11 03:39:38;;;;;;;8.60;3.87;;;2.90;99.90;;;;;;4879892;29;20607;-71
2022/04/11 03:42:04;;;;;;;15.73;5.90;;;2.90;99.90;;;;;;4879789;29;20230;-71
2022/04/11 03:44:29;;;;;;;18.07;5.37;;;2.90;99.90;;;;;;4879303;29;20365;-71
2022/04/11 03:46:55;;;;;;;10.10;5.50;;;2.90;99.90;;;;;;4879538;29;20295;-71
2022/04/11 03:49:21;;;;;;;9.23;4.63;;;2.90;99.90;;;;;;4878514;29;20202;-69
2022/04/11 03:51:47;;;;;;;10.37;5.60;;;2.90;99.90;;;;;;4877946;29;20204;-72
2022/04/11 03:54:12;;;;;;;12.60;6.00;;;2.90;99.90;;;;;;4879029;29;20210;-72
2022/04/11 03:56:38;;;;;;;12.57;5.60;;;2.90;99.90;;;;;;4878916;29;20198;-72
2022/04/11 03:59:04;;;;;;;20.50;7.33;;;2.90;99.90;;;;;;4879027;29;20191;-71
2022/04/11 04:01:30;;;;;;;11.93;6.23;;;2.90;99.90;;;;;;4879403;29;20272;-70
2022/04/11 04:03:56;;;;;;;13.93;6.23;;;2.90;99.90;;;;;;4862881;29;20340;-72
2022/04/11 04:06:21;;;;;;;11.43;6.43;;;2.90;99.90;;;;;;4879272;29;20640;-70
2022/04/11 04:08:47;;;;;;;14.37;6.00;;;3.00;99.90;;;;;;4879524;29;20280;-71
2022/04/11 04:11:13;;;;;;;7.67;4.50;;;3.00;99.90;;;;;;4879181;29;20191;-72
2022/04/11 04:13:39;;;;;;;15.23;6.23;;;3.00;99.90;;;;;;4878682;29;20187;-70
2022/04/11 04:16:05;;;;;;;10.03;6.27;;;3.00;99.90;;;;;;4878620;29;20244;-71
2022/04/11 04:18:31;;;;;;;15.40;6.67;;;3.00;99.90;;;;;;4878770;29;20187;-72
2022/04/11 04:20:56;;;;;;;11.50;6.30;;;3.10;99.90;;;;;;4878475;29;20231;-72
2022/04/11 04:23:22;;;;;;;12.93;6.73;;;3.10;99.90;;;;;;4879063;29;20599;-72
2022/04/11 04:25:48;;;;;;;15.27;6.57;;;3.10;99.90;;;;;;4878795;29;20177;-72
2022/04/11 04:28:17;;;;;;;18.80;7.80;;;3.20;99.90;;;;;;4878690;29;20550;-71
2022/04/11 04:30:44;;;;;;;14.17;6.20;;;3.20;99.90;;;;;;4862153;29;20565;-72
2022/04/11 04:33:09;;;;;;;13.80;7.13;;;3.30;99.90;;;;;;4878588;29;20233;-72
2022/04/11 04:35:35;;;;;;;17.27;7.27;;;3.30;99.90;;;;;;4878579;29;20554;-73
2022/04/11 04:38:03;;;;;;;15.87;7.30;;;3.40;99.90;;;;;;4878549;29;20195;-70
2022/04/11 04:40:29;;;;;;;18.87;7.60;;;3.40;99.90;;;;;;4863064;29;20618;-72
2022/04/11 04:42:55;;;;;;;16.17;7.60;;;3.40;99.90;;;;;;4878041;29;20192;-73
2022/04/11 04:45:21;;;;;;;18.83;7.63;;;3.50;99.90;;;;;;4877959;29;20196;-73
2022/04/11 04:47:46;;;;;;;10.33;6.60;;;3.50;99.90;;;;;;4878378;29;20188;-71
2022/04/11 04:50:12;;;;;;;21.53;7.40;;;3.60;99.90;;;;;;4877536;29;20212;-71
2022/04/11 04:52:38;;;;;;;16.17;7.30;;;3.60;99.90;;;;;;4877878;29;20667;-73
2022/04/11 04:55:05;;;;;;;12.70;7.03;;;3.60;99.90;;;;;;4877950;29;20228;-74
2022/04/11 04:57:31;;;;;;;13.40;7.13;;;3.70;99.90;;;;;;4877368;29;20199;-73
2022/04/11 04:59:56;;;;;;;18.30;7.13;;;3.70;99.90;;;;;;4877733;29;20189;-72
2022/04/11 05:02:22;;;;;;;20.93;8.17;;;3.70;99.90;;;;;;4877523;29;20568;-67
2022/04/11 05:04:48;;;;;;;20.60;7.77;;;3.70;99.90;;;;;;4879119;29;20279;-61
2022/04/11 05:07:14;;;;;;;18.60;7.20;;;3.80;99.90;;;;;;4878289;29;20199;-66
2022/04/11 05:09:40;;;;;;;13.30;7.23;;;3.80;99.90;;;;;;4876651;29;20267;-62
2022/04/11 05:12:06;;;;;;;16.90;6.63;;;3.80;99.90;;;;;;4874843;29;20194;-63
2022/04/11 05:14:32;;;;;;;11.03;6.30;;;3.80;99.90;;;;;;4871115;29;20203;-66
2022/04/11 05:16:57;;;;;;;11.20;6.13;;;3.90;99.90;;;;;;4876573;29;20582;-63
2022/04/11 05:19:23;;;;;;;14.23;6.03;;;4.00;99.90;;;;;;4875402;29;20199;-65
2022/04/11 05:21:49;;;;;;;14.73;6.93;;;4.00;99.90;;;;;;4877047;29;20227;-63
2022/04/11 05:24:15;;;;;;;20.80;7.07;;;4.00;99.90;;;;;;4876731;29;20584;-62
2022/04/11 05:26:40;;;;;;;12.93;6.07;;;4.10;99.90;;;;;;4876972;29;20204;-72
2022/04/11 05:29:06;;;;;;;15.57;6.50;;;4.20;99.90;;;;;;4876893;29;20209;-65
2022/04/11 05:31:32;;;;;;;11.83;5.67;;;4.20;99.90;;;;;;4876504;29;20206;-64
2022/04/11 05:33:57;;;;;;;14.30;6.80;;;4.10;99.90;;;;;;4876626;29;20232;-63
2022/04/11 05:36:23;;;;;;;14.23;6.50;;;4.10;99.90;;;;;;4876513;29;20290;-65
2022/04/11 05:38:49;;;;;;;12.53;5.10;;;4.10;99.90;;;;;;4873981;29;20192;-65
2022/04/11 05:41:15;;;;;;;15.33;6.10;;;4.30;99.90;;;;;;4876543;29;20215;-63
2022/04/11 05:43:41;;;;;;;10.83;4.67;;;4.30;99.90;;;;;;4872327;29;20626;-67
2022/04/11 05:46:06;;;;;;;23.07;7.50;;;4.40;99.90;;;;;;4868981;29;20220;-63
2022/04/11 05:48:32;;;;;;;20.07;5.70;;;4.40;99.90;;;;;;4868627;29;20275;-67
2022/04/11 05:51:00;;;;;;;14.93;5.73;;;4.30;99.90;;;;;;4852790;29;20215;-61
2022/04/11 05:53:26;;;;;;;21.17;7.70;;;4.20;99.90;;;;;;4870601;29;20235;-64
2022/04/11 05:55:52;;;;;;;16.37;7.93;;;4.30;99.90;;;;;;4876821;29;20267;-69
2022/04/11 05:58:18;;;;;;;18.53;7.00;;;4.40;99.90;;;;;;4877323;29;20188;-69
2022/04/11 06:00:44;;;;;;;15.87;6.67;;;4.50;99.90;;;;;;4876359;29;20213;-64
2022/04/11 06:03:09;;;;;;;17.30;6.47;;;4.50;99.90;;;;;;4876491;29;20680;-67
2022/04/11 06:05:39;;;;;;;9.90;5.40;;;4.40;99.90;;;;;;4875740;29;20227;-67
2022/04/11 06:08:04;;;;;;;13.07;7.10;;;4.40;99.90;;;;;;4874121;29;20200;-69
2022/04/11 06:10:30;;;;;;;14.40;6.03;;;4.40;99.90;;;;;;4876186;29;20276;-69
2022/04/11 06:12:57;;;;;;;13.00;5.57;;;4.20;99.90;;;;;;4876939;29;20189;-69
2022/04/11 06:15:23;;;;;;;11.83;4.80;;;4.20;99.90;;;;;;4876954;29;20309;-68
2022/04/11 06:17:48;;;;;;;18.33;6.17;;;4.30;99.90;;;;;;4859318;29;20198;-67
2022/04/11 06:20:14;;;;;;;12.03;5.00;;;4.30;99.90;;;;;;4877846;29;20188;-68
2022/04/11 06:22:40;;;;;;;18.33;5.63;;;4.40;99.90;;;;;;4880153;29;20263;-67
2022/04/11 06:25:08;;;;;;;11.90;5.23;;;4.40;99.90;;;;;;4880313;29;20595;-67
2022/04/11 06:27:37;;;;;;;13.57;5.37;;;4.50;99.90;;;;;;4863820;29;20207;-69
2022/04/11 06:30:05;;;;;;;10.93;4.80;;;4.60;99.90;;;;;;4880363;29;20543;-70
2022/04/11 06:32:32;;;;;;;14.60;6.43;;;4.70;99.90;;;;;;4879634;29;20229;-69
2022/04/11 06:34:59;;;;;;;17.83;6.00;;;4.80;99.90;;;;;;4852816;29;20668;-67
2022/04/11 06:37:26;;;;;;;15.80;5.53;;;4.90;99.90;;;;;;4879921;29;20244;-67
2022/04/11 06:39:52;;;;;;;13.60;5.40;;;5.00;99.90;;;;;;4880170;29;20184;-67
2022/04/11 06:42:19;;;;;;;16.07;6.37;;;5.10;99.90;;;;;;4879720;29;20678;-69
2022/04/11 06:44:45;;;;;;;7.60;4.30;;;5.20;99.90;;;;;;4879986;29;20244;-67
2022/04/11 06:47:10;;;;;;;11.37;5.60;;;5.30;99.90;;;;;;4879230;29;20647;-69
2022/04/11 06:49:37;;;;;;;17.67;6.43;;;5.30;99.90;;;;;;4879500;29;20284;-68
2022/04/11 06:52:04;;;;;;;10.23;4.53;;;5.30;99.90;;;;;;4878521;29;20540;-69
2022/04/11 06:54:33;;;;;;;11.87;5.13;;;5.30;99.90;;;;;;4879195;29;20240;-69
2022/04/11 06:56:59;;;;;;;14.03;5.50;;;5.40;99.90;;;;;;4879734;29;20220;-67
2022/04/11 06:59:25;;;;;;;9.83;4.73;;;5.50;99.90;;;;;;4879878;29;20224;-71
2022/04/11 07:01:54;;;;;;;10.77;4.97;;;5.60;99.90;;;;;;4879196;29;20308;-68
2022/04/11 07:04:20;;;;;;;15.07;6.07;;;5.60;99.90;;;;;;4878834;29;20197;-68
2022/04/11 07:06:46;;;;;;;10.60;4.80;;;5.80;99.90;;;;;;4866934;29;20209;-68
2022/04/11 07:09:11;;;;;;;10.43;5.23;;;5.80;99.90;;;;;;4878062;29;20205;-68
2022/04/11 07:11:37;;;;;;;19.10;6.97;;;5.90;99.90;;;;;;4879760;29;20207;-70
2022/04/11 07:14:04;;;;;;;9.93;4.33;;;6.00;99.90;;;;;;4878931;29;20559;-69
2022/04/11 07:16:30;;;;;;;14.07;5.33;;;6.10;99.90;;;;;;4879546;29;20206;-69
2022/04/11 07:18:55;;;;;;;8.33;4.87;;;6.20;99.90;;;;;;4871279;29;20649;-69
2022/04/11 07:21:21;;;;;;;12.97;5.43;;;6.20;99.90;;;;;;4856891;29;20220;-69
2022/04/11 07:23:47;;;;;;;10.33;5.43;;;6.20;99.90;;;;;;4871892;29;20609;-69
2022/04/11 07:26:13;;;;;;;14.00;4.47;;;6.20;99.90;;;;;;4874529;29;20230;-67
2022/04/11 07:28:39;;;;;;;16.33;5.73;;;6.20;99.90;;;;;;4878698;29;20560;-69
2022/04/11 07:31:05;;;;;;;13.67;5.00;;;6.30;99.90;;;;;;4879168;29;20205;-67
2022/04/11 07:33:31;;;;;;;12.07;3.87;;;6.40;99.90;;;;;;4879008;29;20273;-68
2022/04/11 07:35:57;;;;;;;9.43;4.23;;;6.30;99.50;;;;;;4862970;29;20218;-68
2022/04/11 07:38:22;;;;;;;10.57;4.40;;;6.10;99.90;;;;;;4861280;29;20252;-68
2022/04/11 07:40:48;;;;;;;8.57;3.73;;;6.30;99.90;;;;;;4860786;29;20191;-69
2022/04/11 07:43:17;;;;;;;16.37;4.97;;;6.60;99.30;;;;;;4859761;29;20199;-68
2022/04/11 07:45:43;;;;;;;10.80;4.23;;;7.00;99.30;;;;;;4860753;29;20529;-69
2022/04/11 07:48:09;;;;;;;6.17;4.00;;;7.10;96.20;;;;;;4842870;29;20298;-69
2022/04/11 07:50:35;;;;;;;10.57;4.77;;;7.00;96.40;;;;;;4858743;29;20363;-68
2022/04/11 07:53:01;;;;;;;11.90;4.90;;;7.10;96.80;;;;;;4863525;29;20618;-68
2022/04/11 07:55:27;;;;;;;14.60;5.10;;;7.30;96.20;;;;;;4877563;29;20665;-69
2022/04/11 07:57:53;;;;;;;11.80;4.03;;;7.50;96.60;;;;;;4877540;29;20180;-67
2022/04/11 08:00:20;;;;;;;14.00;4.43;;;7.50;95.40;;;;;;4877600;29;20219;-67
2022/04/11 08:02:53;;;;;;;10.13;4.10;;;7.60;94.30;;;;;;4891143;29;20331;-67
2022/04/11 08:05:22;;;;;;;13.30;4.30;;;7.60;94.10;;;;;;4878896;29;20200;-68
2022/04/11 08:07:49;;;;;;;14.40;5.10;;;7.60;93.80;;;;;;4879023;29;20295;-67
2022/04/11 08:10:16;;;;;;;11.63;5.73;;;7.10;96.80;;;;;;4878863;29;20188;-67
2022/04/11 08:12:51;;;;;;;14.20;6.00;;;6.90;99.00;;;;;;4878828;29;20601;-68
2022/04/11 08:15:16;;;;;;;16.03;5.80;;;6.90;99.80;;;;;;4870021;29;20225;-67
2022/04/11 08:17:42;;;;;;;8.73;4.70;;;7.10;99.30;;;;;;4894620;29;20262;-68
2022/04/11 08:20:08;;;;;;;10.60;4.77;;;7.10;98.70;;;;;;4876327;29;20561;-69
2022/04/11 08:22:34;;;;;;;12.70;5.53;;;7.00;98.60;;;;;;4878620;29;20757;-67
2022/04/11 08:25:00;;;;;;;19.30;5.93;;;7.00;97.40;;;;;;4879185;29;20480;-71
2022/04/11 08:27:25;;;;;;;16.80;6.30;;;7.10;98.90;;;;;;4879030;29;20526;-68
2022/04/11 08:29:51;;;;;;;8.67;4.80;;;7.30;98.00;;;;;;4878778;29;20228;-70
2022/04/11 08:32:18;;;;;;;11.83;5.40;;;7.30;97.20;;;;;;4878530;29;20188;-69
2022/04/11 08:34:44;;;;;;;16.97;6.33;;;7.30;97.90;;;;;;4878030;29;20256;-68
2022/04/11 08:37:10;;;;;;;7.70;4.53;;;7.70;97.80;;;;;;4878216;29;20668;-69
2022/04/11 08:39:36;;;;;;;7.73;4.67;;;7.90;95.30;;;;;;4878219;29;20180;-68
2022/04/11 08:42:02;;;;;;;14.73;5.90;;;7.70;96.00;;;;;;4893164;29;20646;-68
2022/04/11 08:44:29;;;;;;;10.97;5.33;;;7.60;96.10;;;;;;4878451;29;20184;-69
2022/04/11 08:47:01;;;;;;;16.77;6.37;;;7.50;96.50;;;;;;4878671;29;20237;-68
2022/04/11 08:49:28;;;;;;;10.53;5.07;;;7.60;97.20;;;;;;4876856;29;20669;-68
2022/04/11 08:51:54;;;;;;;10.87;5.07;;;7.80;96.00;;;;;;4877820;29;20215;-69
2022/04/11 08:54:20;;;;;;;11.77;6.07;;;8.10;95.10;;;;;;4877799;29;20195;-69
2022/04/11 08:56:46;;;;;;;14.30;5.67;;;8.20;95.60;;;;;;4866068;29;20367;-69
2022/04/11 08:59:12;;;;;;;12.33;5.53;;;8.10;94.80;;;;;;4857908;29;20196;-67
2022/04/11 09:01:37;;;;;;;12.13;5.47;;;8.10;95.70;;;;;;4857289;29;20303;-67
2022/04/11 09:04:03;;;;;;;14.30;5.97;;;8.00;94.70;;;;;;4858993;29;20189;-66
2022/04/11 09:06:33;;;;;;;11.47;5.17;;;8.10;94.70;;;;;;4858690;29;20200;-68
2022/04/11 09:08:59;;;;;;;13.07;5.67;;;8.10;94.30;;;;;;4858722;29;20296;-68
2022/04/11 09:11:35;;;;;;;16.07;6.87;;;8.10;95.20;;;;;;4854168;29;20192;-69
2022/04/11 09:14:06;;;;;;;10.13;5.30;;;8.00;95.60;;;;;;4877857;29;20259;-69
2022/04/11 09:16:51;;;;;;;12.57;5.93;;;7.40;97.30;;;;;;4845282;29;20193;-67
2022/04/11 09:19:25;;;;;;;8.63;4.47;;;7.40;96.90;;;;;;4877392;29;20283;-67
2022/04/11 09:21:54;;;;;;;11.23;5.73;;;7.50;96.70;;;;;;4877173;29;20221;-68
2022/04/11 09:24:22;;;;;;;7.23;4.77;;;7.50;96.90;;;;;;4875581;29;20238;-68
2022/04/11 09:26:51;;;;;;;7.87;4.87;;;7.50;97.10;;;;;;4877522;29;20222;-68
2022/04/11 09:29:17;;;;;;;12.47;5.77;;;7.20;97.20;;;;;;4877472;29;20217;-69
2022/04/11 09:31:43;;;;;;;19.40;5.17;;;7.10;97.50;;;;;;4877292;29;20738;-68
2022/04/11 09:34:19;;;;;;;15.00;6.47;;;7.20;97.60;;;;;;4877463;29;20180;-68
2022/04/11 09:36:50;;;;;;;12.53;5.50;;;7.60;97.90;;;;;;4876720;29;20241;-69
2022/04/11 09:39:21;;;;;;;10.93;4.80;;;8.10;97.40;;;;;;4877357;29;20508;-70
2022/04/11 09:41:47;;;;;;;10.77;4.40;;;8.30;96.00;;;;;;4876973;29;20284;-68
2022/04/11 09:44:20;;;;;;;13.00;5.10;;;8.30;95.30;;;;;;4877304;29;20557;-70
2022/04/11 09:46:46;;;;;;;12.80;5.17;;;8.10;95.60;;;;;;4876858;29;20185;-69
2022/04/11 09:49:12;;;;;;;14.53;6.20;;;8.20;96.80;;;;;;4877109;29;20267;-68
2022/04/11 09:52:03;;;;;;;6.77;3.50;;;8.20;98.00;;;;;;4876735;29;20224;-68
2022/04/11 09:54:30;;;;;;;10.73;4.70;;;8.10;92.40;;;;;;4859582;29;20669;-69
2022/04/11 09:56:59;;;;;;;10.13;4.50;;;8.00;93.10;;;;;;4876867;29;20625;-68
2022/04/11 09:59:25;;;;;;;8.70;4.73;;;7.70;94.60;;;;;;4876487;29;20188;-69
2022/04/11 10:01:52;;;;;;;9.83;5.10;;;7.80;96.10;;;;;;4875830;29;20311;-70
2022/04/11 10:04:21;;;;;;;10.90;4.53;;;8.00;95.40;;;;;;4877016;29;20260;-69
2022/04/11 10:06:48;;;;;;;13.87;4.73;;;8.00;95.00;;;;;;4876502;29;20580;-69
2022/04/11 10:09:16;;;;;;;5.97;3.13;;;8.10;94.20;;;;;;4877168;29;20184;-68
2022/04/11 10:11:43;;;;;;;8.90;4.10;;;7.90;92.40;;;;;;4876196;29;20201;-69
2022/04/11 10:14:23;;;;;;;10.47;3.83;;;8.00;92.50;;;;;;4876960;29;20255;-68
2022/04/11 10:17:02;;;;;;;5.33;3.00;;;8.10;93.00;;;;;;4877009;29;20181;-70
2022/04/11 10:19:29;;;;;;;12.27;5.53;;;8.30;93.80;;;;;;4877025;29;20224;-68
2022/04/11 10:22:00;;;;;;;8.87;4.43;;;8.50;95.00;;;;;;4876280;29;20262;-69
2022/04/11 10:24:33;;;;;;;14.80;4.93;;;8.80;93.30;;;;;;4876437;29;20194;-68
2022/04/11 10:27:14;;;;;;;9.63;4.20;;;9.10;92.30;;;;;;4877002;29;20260;-68
2022/04/11 10:29:40;;;;;;;10.00;4.43;;;9.30;91.40;;;;;;4876510;29;20281;-68
2022/04/11 10:32:11;;;;;;;10.03;5.07;;;9.30;91.70;;;;;;4876701;29;20532;-67
2022/04/11 10:35:02;;;;;;;8.63;4.17;;;8.80;92.30;;;;;;4876291;29;20641;-66
2022/04/11 10:37:39;;;;;;;7.37;4.10;;;8.50;92.60;;;;;;4876342;29;20657;-68
2022/04/11 10:40:17;;;;;;;6.40;3.70;;;8.60;92.30;;;;;;4876431;29;20208;-68
2022/04/11 10:42:58;;;;;;;11.00;4.70;;;8.80;90.10;;;;;;4876376;29;20238;-69
2022/04/11 10:45:41;;;;;;;9.00;4.73;;;9.00;91.50;;;;;;4876468;29;20184;-70
2022/04/11 10:48:12;;;;;;;9.87;4.60;;;9.40;90.50;;;;;;4877050;29;20200;-68
2022/04/11 10:50:42;;;;;;;10.43;3.83;;;9.40;90.70;;;;;;4876510;29;20246;-66
2022/04/11 10:53:08;;;;;;;7.97;3.53;;;8.90;88.20;;;;;;4876593;29;20188;-68
2022/04/11 10:55:34;;;;;;;15.40;3.77;;;8.30;88.60;;;;;;4875699;29;20232;-66
2022/04/11 10:58:00;;;;;;;7.27;3.13;;;7.90;90.20;;;;;;4876019;29;20204;-70
2022/04/11 11:00:28;;;;;;;7.53;2.80;;;7.50;90.40;;;;;;4858751;29;20192;-69
2022/04/11 11:05:40;;;;;;;9.50;3.30;;;7.90;86.00;;;;;;4876461;29;20188;-69
2022/04/11 11:08:09;;;;;;;7.47;3.57;;;8.10;84.40;;;;;;4878888;29;20641;-69
2022/04/11 11:10:52;;;;;;;8.70;4.10;;;8.40;85.30;;;;;;4879201;29;20212;-70
2022/04/11 11:13:27;;;;;;;9.63;4.00;;;8.90;85.40;;;;;;4879752;29;20545;-70
2022/04/11 11:15:57;;;;;;;6.40;3.77;;;9.40;84.70;;;;;;4879418;29;20188;-68
2022/04/11 11:18:23;;;;;;;9.50;4.20;;;9.50;80.40;;;;;;4879900;29;20587;-68
2022/04/11 11:20:54;;;;;;;9.00;3.60;;;9.40;76.80;;;;;;4879280;29;20186;-68
2022/04/11 11:23:31;;;;;;;6.80;3.13;;;9.50;74.20;;;;;;4879361;29;20194;-69
2022/04/11 11:26:06;;;;;;;10.20;3.57;;;9.50;71.50;;;;;;4879698;29;20230;-69
2022/04/11 11:28:32;;;;;;;4.83;3.03;;;9.40;72.10;;;;;;4879625;29;20521;-68
2022/04/11 11:30:58;;;;;;;6.23;3.23;;;9.20;71.00;;;;;;4862643;29;20210;-67
2022/04/11 11:33:26;;;;;;;5.90;2.90;;;9.00;73.90;;;;;;4879158;29;20644;-68
2022/04/11 11:35:54;;;;;;;10.63;5.07;;;9.50;74.60;;;;;;4877460;29;20258;-67
2022/04/11 11:38:26;;;;;;;8.03;2.97;;;9.80;72.70;;;;;;4879073;29;20299;-68
2022/04/11 11:40:59;;;;;;;5.10;2.27;;;9.60;69.30;;;;;;4879277;29;20658;-68
2022/04/11 11:43:26;;;;;;;5.87;3.40;;;9.20;67.50;;;;;;4879856;29;20186;-67
2022/04/11 11:46:00;;;;;;;7.10;2.80;;;8.90;70.60;;;;;;4878851;29;20663;-69
2022/04/11 11:48:32;;;;;;;8.00;3.17;;;10.00;71.70;;;;;;4879465;29;20173;-68
2022/04/11 11:51:00;;;;;;;5.13;3.27;;;11.60;66.80;;;;;;4877905;29;20227;-67
2022/04/11 11:53:43;;;;;;;6.90;3.70;;;13.80;62.30;;;;;;4879109;29;20215;-68
2022/04/11 11:56:09;;;;;;;12.50;4.47;;;15.70;56.60;;;;;;4878615;29;20303;-68
2022/04/11 11:58:38;;;;;;;19.88;3.70;;;17.10;51.20;;;;;;4878660;29;20404;-68
2022/04/11 12:01:06;;;;;;;3.77;2.27;;;17.20;47.90;;;;;;4878414;29;20239;-67
2022/04/11 12:06:27;;;;;;;6.50;2.87;;;14.80;50.80;;;;;;4870626;29;20203;-69
2022/04/11 12:09:03;;;;;;;6.63;2.57;;;13.40;50.30;;;;;;4867513;29;20629;-67
2022/04/11 12:11:30;;;;;;;3.73;2.07;;;12.30;52.00;;;;;;4878224;29;20196;-70
2022/04/11 12:14:22;;;;;;;5.47;2.00;;;11.40;52.70;;;;;;4875877;29;20299;-72
2022/04/11 12:17:00;;;;;;;6.20;2.40;;;12.40;51.40;;;;;;4867890;29;20212;-70
2022/04/11 12:19:37;;;;;;;10.10;2.63;;;13.00;49.90;;;;;;4875298;29;20298;-70
2022/04/11 12:22:15;;;;;;;9.17;3.13;;;12.30;50.60;;;;;;4872207;29;20659;-70
2022/04/11 12:24:41;;;;;;;13.63;4.30;;;11.70;53.10;;;;;;4860697;29;20213;-71
2022/04/11 12:27:13;;;;;;;7.57;2.90;;;12.30;54.40;;;;;;4866500;29;20274;-70
2022/04/11 12:29:43;;;;;;;7.13;3.28;;;12.40;52.60;;;;;;4878488;29;20427;-70
2022/04/11 12:32:14;;;;;;;8.03;2.83;;;11.80;52.70;;;;;;4878596;29;20205;-69
2022/04/11 12:34:44;;;;;;;4.43;2.70;;;11.50;52.70;;;;;;4878568;29;20236;-69
2022/04/11 12:37:12;;;;;;;8.23;2.20;;;10.80;52.90;;;;;;4876200;29;20199;-70
2022/04/11 12:39:57;;;;;;;3.90;2.17;;;10.50;54.30;;;;;;4863452;29;20204;-68
2022/04/11 12:42:25;;;;;;;4.33;1.77;;;9.90;55.40;;;;;;4878396;29;20239;-68
2022/04/11 12:45:07;;;;;;;6.37;2.40;;;9.40;56.50;;;;;;4878098;29;20354;-67
2022/04/11 12:47:53;;;;;;;6.97;2.00;;;9.50;57.10;;;;;;4878222;29;20598;-70
2022/04/11 12:50:22;;;;;;;5.83;2.57;;;10.00;56.40;;;;;;4863578;29;20201;-68
2022/04/11 12:52:48;;;;;;;5.33;2.53;;;12.70;53.60;;;;;;4877092;29;20207;-70
2022/04/11 12:55:14;;;;;;;7.77;2.47;;;14.60;49.60;;;;;;4878048;29;20313;-68
2022/04/11 12:57:40;;;;;;;5.03;2.97;;;15.30;47.70;;;;;;4877976;29;20202;-66
2022/04/11 13:00:18;;;;;;;5.87;2.23;;;15.60;46.10;;;;;;4860901;29;20219;-67